sensor_id;sensor_type;location;lat;lon;timestamp;temperature;humidity
27819;DHT22;15192;44.854;10.046;2023-08-21T00:01:58;26.70;99.90
27819;DHT22;15192;44.854;10.046;2023-08-21T00:04:26;26.70;99.90
27819;DHT22;15192;44.854;10.046;2023-08-21T00:06:54;26.70;99.90
27819;DHT22;15192;44.854;10.046;2023-08-21T00:09:23;26.60;99.90
27819;DHT22;15192;44.854;10.046;2023-08-21T00:11:51;26.60;99.90
27819;DHT22;15192;44.854;10.046;2023-08-21T00:14:19;26.50;99.90
27819;DHT22;15192;44.854;10.046;2023-08-21T00:16:47;26.40;99.90
27819;DHT22;15192;44.854;10.046;2023-08-21T00:19:15;26.30;99.90
27819;DHT22;15192;44.854;10.046;2023-08-21T00:21:43;26.20;99.90
27819;DHT22;15192;44.854;10.046;2023-08-21T00:24:10;26.10;99.90
27819;DHT22;15192;44.854;10.046;2023-08-21T00:26:38;26.10;99.90
27819;DHT22;15192;44.854;10.046;2023-08-21T00:29:06;26.00;99.90
27819;DHT22;15192;44.854;10.046;2023-08-21T00:31:34;25.90;99.90
27819;DHT22;15192;44.854;10.046;2023-08-21T00:34:04;25.90;99.90
27819;DHT22;15192;44.854;10.046;2023-08-21T00:36:32;25.90;99.90
27819;DHT22;15192;44.854;10.046;2023-08-21T00:39:00;25.80;99.90
27819;DHT22;15192;44.854;10.046;2023-08-21T00:41:29;25.80;99.90
27819;DHT22;15192;44.854;10.046;2023-08-21T00:43:58;25.80;99.90
27819;DHT22;15192;44.854;10.046;2023-08-21T00:46:26;25.80;99.90
27819;DHT22;15192;44.854;10.046;2023-08-21T00:48:54;25.80;99.90
27819;DHT22;15192;44.854;10.046;2023-08-21T00:51:22;25.70;99.90
27819;DHT22;15192;44.854;10.046;2023-08-21T00:53:51;25.70;99.90
27819;DHT22;15192;44.854;10.046;2023-08-21T00:56:19;25.70;99.90
27819;DHT22;15192;44.854;10.046;2023-08-21T00:58:47;25.60;99.90
27819;DHT22;15192;44.854;10.046;2023-08-21T01:01:15;25.50;99.90
27819;DHT22;15192;44.854;10.046;2023-08-21T01:03:46;25.50;99.90
27819;DHT22;15192;44.854;10.046;2023-08-21T01:06:14;25.50;99.90
27819;DHT22;15192;44.854;10.046;2023-08-21T01:08:53;25.50;99.90
27819;DHT22;15192;44.854;10.046;2023-08-21T01:14:18;25.40;99.90
27819;DHT22;15192;44.854;10.046;2023-08-21T01:16:38;25.30;99.90
27819;DHT22;15192;44.854;10.046;2023-08-21T01:19:09;25.30;99.90
27819;DHT22;15192;44.854;10.046;2023-08-21T01:21:37;25.20;99.90
27819;DHT22;15192;44.854;10.046;2023-08-21T01:24:05;25.20;99.90
27819;DHT22;15192;44.854;10.046;2023-08-21T01:26:33;25.20;99.90
27819;DHT22;15192;44.854;10.046;2023-08-21T01:29:01;25.10;99.90
27819;DHT22;15192;44.854;10.046;2023-08-21T01:31:31;25.10;99.90
27819;DHT22;15192;44.854;10.046;2023-08-21T01:34:01;25.00;99.90
27819;DHT22;15192;44.854;10.046;2023-08-21T01:36:31;25.00;99.90
27819;DHT22;15192;44.854;10.046;2023-08-21T01:38:59;24.90;99.90
27819;DHT22;15192;44.854;10.046;2023-08-21T01:41:27;24.90;99.90
27819;DHT22;15192;44.854;10.046;2023-08-21T01:43:55;24.90;99.90
27819;DHT22;15192;44.854;10.046;2023-08-21T01:46:23;24.90;99.90
27819;DHT22;15192;44.854;10.046;2023-08-21T01:48:51;24.90;99.90
27819;DHT22;15192;44.854;10.046;2023-08-21T01:51:20;24.80;99.90
27819;DHT22;15192;44.854;10.046;2023-08-21T01:53:48;24.80;99.90
27819;DHT22;15192;44.854;10.046;2023-08-21T01:56:16;24.70;99.90
27819;DHT22;15192;44.854;10.046;2023-08-21T01:58:44;24.70;99.90
27819;DHT22;15192;44.854;10.046;2023-08-21T02:01:12;24.70;99.90
27819;DHT22;15192;44.854;10.046;2023-08-21T02:03:41;24.70;99.90
27819;DHT22;15192;44.854;10.046;2023-08-21T02:06:09;24.60;99.90
27819;DHT22;15192;44.854;10.046;2023-08-21T02:08:37;24.60;99.90
27819;DHT22;15192;44.854;10.046;2023-08-21T02:11:05;24.60;99.90
27819;DHT22;15192;44.854;10.046;2023-08-21T02:13:33;24.50;99.90
27819;DHT22;15192;44.854;10.046;2023-08-21T02:16:01;24.50;99.90
27819;DHT22;15192;44.854;10.046;2023-08-21T02:18:29;24.60;99.90
27819;DHT22;15192;44.854;10.046;2023-08-21T02:20:57;24.50;99.90
27819;DHT22;15192;44.854;10.046;2023-08-21T02:23:25;24.50;99.90
27819;DHT22;15192;44.854;10.046;2023-08-21T02:25:54;24.50;99.90
27819;DHT22;15192;44.854;10.046;2023-08-21T02:28:22;24.50;99.90
27819;DHT22;15192;44.854;10.046;2023-08-21T02:30:50;24.40;99.90
27819;DHT22;15192;44.854;10.046;2023-08-21T02:33:18;24.40;99.90
27819;DHT22;15192;44.854;10.046;2023-08-21T02:35:46;24.30;99.90
27819;DHT22;15192;44.854;10.046;2023-08-21T02:38:14;24.30;99.90
27819;DHT22;15192;44.854;10.046;2023-08-21T02:40:42;24.30;99.90
27819;DHT22;15192;44.854;10.046;2023-08-21T02:43:10;24.30;99.90
27819;DHT22;15192;44.854;10.046;2023-08-21T02:45:37;24.20;99.90
27819;DHT22;15192;44.854;10.046;2023-08-21T02:48:05;24.20;99.90
27819;DHT22;15192;44.854;10.046;2023-08-21T02:50:34;24.20;99.90
27819;DHT22;15192;44.854;10.046;2023-08-21T02:53:02;24.20;99.90
27819;DHT22;15192;44.854;10.046;2023-08-21T02:55:30;24.10;99.90
27819;DHT22;15192;44.854;10.046;2023-08-21T02:57:58;24.20;99.90
27819;DHT22;15192;44.854;10.046;2023-08-21T03:00:26;24.10;99.90
27819;DHT22;15192;44.854;10.046;2023-08-21T03:02:54;24.10;99.90
27819;DHT22;15192;44.854;10.046;2023-08-21T03:05:22;24.10;99.90
27819;DHT22;15192;44.854;10.046;2023-08-21T03:07:50;24.00;99.90
27819;DHT22;15192;44.854;10.046;2023-08-21T03:10:18;24.00;99.90
27819;DHT22;15192;44.854;10.046;2023-08-21T03:12:46;24.00;99.90
27819;DHT22;15192;44.854;10.046;2023-08-21T03:15:14;24.00;99.90
27819;DHT22;15192;44.854;10.046;2023-08-21T03:17:43;23.90;99.90
27819;DHT22;15192;44.854;10.046;2023-08-21T03:20:11;23.90;99.90
27819;DHT22;15192;44.854;10.046;2023-08-21T03:22:39;23.90;99.90
27819;DHT22;15192;44.854;10.046;2023-08-21T03:25:07;23.80;99.90
27819;DHT22;15192;44.854;10.046;2023-08-21T03:27:35;23.80;99.90
27819;DHT22;15192;44.854;10.046;2023-08-21T03:30:05;23.80;99.90
27819;DHT22;15192;44.854;10.046;2023-08-21T03:32:34;23.70;99.90
27819;DHT22;15192;44.854;10.046;2023-08-21T03:35:03;23.70;99.90
27819;DHT22;15192;44.854;10.046;2023-08-21T03:37:31;23.60;99.90
27819;DHT22;15192;44.854;10.046;2023-08-21T03:39:59;23.60;99.90
27819;DHT22;15192;44.854;10.046;2023-08-21T03:42:28;23.50;99.90
27819;DHT22;15192;44.854;10.046;2023-08-21T03:44:56;23.40;99.90
27819;DHT22;15192;44.854;10.046;2023-08-21T03:47:24;23.30;99.90
27819;DHT22;15192;44.854;10.046;2023-08-21T03:49:54;23.20;99.90
27819;DHT22;15192;44.854;10.046;2023-08-21T03:52:23;23.10;99.90
27819;DHT22;15192;44.854;10.046;2023-08-21T03:54:51;23.00;99.90
27819;DHT22;15192;44.854;10.046;2023-08-21T03:57:19;23.00;99.90
27819;DHT22;15192;44.854;10.046;2023-08-21T03:59:47;22.90;99.90
27819;DHT22;15192;44.854;10.046;2023-08-21T04:02:15;22.90;99.90
27819;DHT22;15192;44.854;10.046;2023-08-21T04:04:43;22.90;99.90
27819;DHT22;15192;44.854;10.046;2023-08-21T04:07:11;22.80;99.90
27819;DHT22;15192;44.854;10.046;2023-08-21T04:09:39;22.80;99.90
27819;DHT22;15192;44.854;10.046;2023-08-21T04:12:08;22.80;99.90
27819;DHT22;15192;44.854;10.046;2023-08-21T04:14:36;22.80;99.90
27819;DHT22;15192;44.854;10.046;2023-08-21T04:17:04;22.90;99.90
27819;DHT22;15192;44.854;10.046;2023-08-21T04:19:31;22.90;99.90
27819;DHT22;15192;44.854;10.046;2023-08-21T04:22:02;22.90;99.90
27819;DHT22;15192;44.854;10.046;2023-08-21T04:24:30;22.90;99.90
27819;DHT22;15192;44.854;10.046;2023-08-21T04:26:58;22.90;99.90
27819;DHT22;15192;44.854;10.046;2023-08-21T04:29:26;22.80;99.90
27819;DHT22;15192;44.854;10.046;2023-08-21T04:31:54;22.70;99.90
27819;DHT22;15192;44.854;10.046;2023-08-21T04:34:22;22.70;99.90
27819;DHT22;15192;44.854;10.046;2023-08-21T04:36:50;22.70;99.90
27819;DHT22;15192;44.854;10.046;2023-08-21T04:39:19;22.70;99.90
27819;DHT22;15192;44.854;10.046;2023-08-21T04:41:47;22.80;99.90
27819;DHT22;15192;44.854;10.046;2023-08-21T04:44:17;22.80;99.90
27819;DHT22;15192;44.854;10.046;2023-08-21T04:46:47;22.80;99.90
27819;DHT22;15192;44.854;10.046;2023-08-21T04:49:16;22.80;99.90
27819;DHT22;15192;44.854;10.046;2023-08-21T04:51:44;22.90;99.90
27819;DHT22;15192;44.854;10.046;2023-08-21T04:54:12;22.90;99.90
27819;DHT22;15192;44.854;10.046;2023-08-21T04:56:40;23.10;99.90
27819;DHT22;15192;44.854;10.046;2023-08-21T04:59:09;23.10;99.90
27819;DHT22;15192;44.854;10.046;2023-08-21T05:01:37;23.20;99.90
27819;DHT22;15192;44.854;10.046;2023-08-21T05:04:05;23.30;99.90
27819;DHT22;15192;44.854;10.046;2023-08-21T05:06:33;23.30;99.90
27819;DHT22;15192;44.854;10.046;2023-08-21T05:09:02;23.40;99.90
27819;DHT22;15192;44.854;10.046;2023-08-21T05:11:30;23.40;99.90
27819;DHT22;15192;44.854;10.046;2023-08-21T05:13:58;23.50;99.90
27819;DHT22;15192;44.854;10.046;2023-08-21T05:16:26;23.60;99.90
27819;DHT22;15192;44.854;10.046;2023-08-21T05:18:55;23.70;99.90
27819;DHT22;15192;44.854;10.046;2023-08-21T05:21:24;23.80;99.90
27819;DHT22;15192;44.854;10.046;2023-08-21T05:23:52;23.90;99.90
27819;DHT22;15192;44.854;10.046;2023-08-21T05:26:20;24.00;99.90
27819;DHT22;15192;44.854;10.046;2023-08-21T05:28:48;24.10;99.90
27819;DHT22;15192;44.854;10.046;2023-08-21T05:31:16;24.20;99.90
27819;DHT22;15192;44.854;10.046;2023-08-21T05:33:48;24.30;99.90
27819;DHT22;15192;44.854;10.046;2023-08-21T05:36:16;24.40;99.90
27819;DHT22;15192;44.854;10.046;2023-08-21T05:38:44;24.50;99.90
27819;DHT22;15192;44.854;10.046;2023-08-21T05:41:14;24.60;99.90
27819;DHT22;15192;44.854;10.046;2023-08-21T05:43:43;24.90;99.90
27819;DHT22;15192;44.854;10.046;2023-08-21T05:46:12;25.30;99.90
27819;DHT22;15192;44.854;10.046;2023-08-21T05:48:41;25.80;99.90
27819;DHT22;15192;44.854;10.046;2023-08-21T05:51:09;26.60;99.90
27819;DHT22;15192;44.854;10.046;2023-08-21T05:53:37;27.60;99.90
27819;DHT22;15192;44.854;10.046;2023-08-21T05:56:05;28.40;99.90
27819;DHT22;15192;44.854;10.046;2023-08-21T05:58:34;29.10;99.90
27819;DHT22;15192;44.854;10.046;2023-08-21T06:01:02;29.60;99.90
27819;DHT22;15192;44.854;10.046;2023-08-21T06:03:31;30.00;99.90
27819;DHT22;15192;44.854;10.046;2023-08-21T06:06:16;30.40;99.90
27819;DHT22;15192;44.854;10.046;2023-08-21T06:08:44;30.50;99.90
27819;DHT22;15192;44.854;10.046;2023-08-21T06:11:12;30.50;99.90
27819;DHT22;15192;44.854;10.046;2023-08-21T06:13:41;30.50;99.90
27819;DHT22;15192;44.854;10.046;2023-08-21T06:16:10;30.50;99.90
27819;DHT22;15192;44.854;10.046;2023-08-21T06:18:39;30.50;99.90
27819;DHT22;15192;44.854;10.046;2023-08-21T06:21:07;30.50;99.90
27819;DHT22;15192;44.854;10.046;2023-08-21T06:23:36;30.60;99.90
27819;DHT22;15192;44.854;10.046;2023-08-21T06:26:04;30.60;99.90
27819;DHT22;15192;44.854;10.046;2023-08-21T06:28:32;30.60;99.90
27819;DHT22;15192;44.854;10.046;2023-08-21T06:31:00;30.50;99.90
27819;DHT22;15192;44.854;10.046;2023-08-21T06:33:33;30.50;99.90
27819;DHT22;15192;44.854;10.046;2023-08-21T06:36:01;30.50;99.90
27819;DHT22;15192;44.854;10.046;2023-08-21T06:38:29;30.60;99.90
27819;DHT22;15192;44.854;10.046;2023-08-21T06:40:57;30.50;99.90
27819;DHT22;15192;44.854;10.046;2023-08-21T06:43:25;30.60;99.90
27819;DHT22;15192;44.854;10.046;2023-08-21T06:45:55;30.50;99.90
27819;DHT22;15192;44.854;10.046;2023-08-21T06:48:23;30.60;99.90
27819;DHT22;15192;44.854;10.046;2023-08-21T06:50:52;30.60;99.90
27819;DHT22;15192;44.854;10.046;2023-08-21T06:53:20;30.60;99.90
27819;DHT22;15192;44.854;10.046;2023-08-21T06:55:48;30.50;99.90
27819;DHT22;15192;44.854;10.046;2023-08-21T06:58:16;30.50;99.90
27819;DHT22;15192;44.854;10.046;2023-08-21T07:00:44;30.70;99.90
27819;DHT22;15192;44.854;10.046;2023-08-21T07:03:12;30.90;99.90
27819;DHT22;15192;44.854;10.046;2023-08-21T07:05:40;31.00;99.90
27819;DHT22;15192;44.854;10.046;2023-08-21T07:08:08;31.10;99.90
27819;DHT22;15192;44.854;10.046;2023-08-21T07:10:37;31.10;99.90
27819;DHT22;15192;44.854;10.046;2023-08-21T07:13:05;31.00;99.90
27819;DHT22;15192;44.854;10.046;2023-08-21T07:15:33;31.20;99.90
27819;DHT22;15192;44.854;10.046;2023-08-21T07:18:01;31.40;99.90
27819;DHT22;15192;44.854;10.046;2023-08-21T07:20:29;31.50;99.90
27819;DHT22;15192;44.854;10.046;2023-08-21T07:22:57;31.60;99.90
27819;DHT22;15192;44.854;10.046;2023-08-21T07:25:25;31.70;99.90
27819;DHT22;15192;44.854;10.046;2023-08-21T07:27:55;31.80;99.90
27819;DHT22;15192;44.854;10.046;2023-08-21T07:30:23;31.90;99.90
27819;DHT22;15192;44.854;10.046;2023-08-21T07:32:52;32.10;99.90
27819;DHT22;15192;44.854;10.046;2023-08-21T07:35:20;32.20;99.90
27819;DHT22;15192;44.854;10.046;2023-08-21T07:37:48;32.30;99.90
27819;DHT22;15192;44.854;10.046;2023-08-21T07:40:17;32.40;99.90
27819;DHT22;15192;44.854;10.046;2023-08-21T07:42:45;32.40;99.90
27819;DHT22;15192;44.854;10.046;2023-08-21T07:45:13;32.30;99.90
27819;DHT22;15192;44.854;10.046;2023-08-21T07:47:41;32.40;99.90
27819;DHT22;15192;44.854;10.046;2023-08-21T07:50:09;32.40;99.90
27819;DHT22;15192;44.854;10.046;2023-08-21T07:52:37;32.60;99.90
27819;DHT22;15192;44.854;10.046;2023-08-21T07:55:05;32.70;99.90
27819;DHT22;15192;44.854;10.046;2023-08-21T07:57:33;32.80;99.90
27819;DHT22;15192;44.854;10.046;2023-08-21T08:00:01;33.00;99.90
27819;DHT22;15192;44.854;10.046;2023-08-21T08:02:31;33.00;99.90
27819;DHT22;15192;44.854;10.046;2023-08-21T08:04:59;33.10;99.90
27819;DHT22;15192;44.854;10.046;2023-08-21T08:07:27;33.20;99.90
27819;DHT22;15192;44.854;10.046;2023-08-21T08:09:55;33.40;99.90
27819;DHT22;15192;44.854;10.046;2023-08-21T08:12:23;33.40;99.90
27819;DHT22;15192;44.854;10.046;2023-08-21T08:14:52;33.40;99.90
27819;DHT22;15192;44.854;10.046;2023-08-21T08:17:20;33.40;99.90
27819;DHT22;15192;44.854;10.046;2023-08-21T08:19:48;33.30;99.90
27819;DHT22;15192;44.854;10.046;2023-08-21T08:22:16;33.40;99.90
27819;DHT22;15192;44.854;10.046;2023-08-21T08:24:44;33.40;99.90
27819;DHT22;15192;44.854;10.046;2023-08-21T08:27:12;33.40;99.90
27819;DHT22;15192;44.854;10.046;2023-08-21T08:29:40;33.30;99.90
27819;DHT22;15192;44.854;10.046;2023-08-21T08:32:08;33.30;99.90
27819;DHT22;15192;44.854;10.046;2023-08-21T08:34:37;33.30;99.90
27819;DHT22;15192;44.854;10.046;2023-08-21T08:37:05;33.40;99.90
27819;DHT22;15192;44.854;10.046;2023-08-21T08:39:33;33.50;99.90
27819;DHT22;15192;44.854;10.046;2023-08-21T08:42:05;33.50;99.90
27819;DHT22;15192;44.854;10.046;2023-08-21T08:44:34;33.60;99.90
27819;DHT22;15192;44.854;10.046;2023-08-21T08:47:04;33.60;99.90
27819;DHT22;15192;44.854;10.046;2023-08-21T08:49:32;33.60;99.90
27819;DHT22;15192;44.854;10.046;2023-08-21T08:52:00;33.70;99.90
27819;DHT22;15192;44.854;10.046;2023-08-21T08:54:29;33.60;99.90
27819;DHT22;15192;44.854;10.046;2023-08-21T08:56:58;33.60;99.90
27819;DHT22;15192;44.854;10.046;2023-08-21T08:59:26;33.60;99.90
27819;DHT22;15192;44.854;10.046;2023-08-21T09:01:54;33.60;99.90
27819;DHT22;15192;44.854;10.046;2023-08-21T09:04:22;33.60;99.90
27819;DHT22;15192;44.854;10.046;2023-08-21T09:06:50;33.50;99.90
27819;DHT22;15192;44.854;10.046;2023-08-21T09:09:18;33.40;99.90
27819;DHT22;15192;44.854;10.046;2023-08-21T09:11:46;33.40;99.90
27819;DHT22;15192;44.854;10.046;2023-08-21T09:14:15;33.40;99.90
27819;DHT22;15192;44.854;10.046;2023-08-21T09:16:59;33.30;99.90
27819;DHT22;15192;44.854;10.046;2023-08-21T09:19:29;33.20;99.90
27819;DHT22;15192;44.854;10.046;2023-08-21T09:21:57;33.10;99.90
27819;DHT22;15192;44.854;10.046;2023-08-21T09:24:25;33.10;99.90
27819;DHT22;15192;44.854;10.046;2023-08-21T09:26:53;33.20;99.90
27819;DHT22;15192;44.854;10.046;2023-08-21T09:29:21;33.10;99.90
27819;DHT22;15192;44.854;10.046;2023-08-21T09:31:49;33.00;99.90
27819;DHT22;15192;44.854;10.046;2023-08-21T09:34:17;33.00;99.90
27819;DHT22;15192;44.854;10.046;2023-08-21T09:36:52;32.90;99.90
27819;DHT22;15192;44.854;10.046;2023-08-21T09:39:16;32.90;99.90
27819;DHT22;15192;44.854;10.046;2023-08-21T09:41:54;32.90;99.90
27819;DHT22;15192;44.854;10.046;2023-08-21T09:44:14;32.90;99.90
27819;DHT22;15192;44.854;10.046;2023-08-21T09:46:42;32.90;99.90
27819;DHT22;15192;44.854;10.046;2023-08-21T09:49:10;32.70;99.90
27819;DHT22;15192;44.854;10.046;2023-08-21T09:51:38;32.70;99.90
27819;DHT22;15192;44.854;10.046;2023-08-21T09:54:06;32.60;99.90
27819;DHT22;15192;44.854;10.046;2023-08-21T09:56:34;32.60;99.90
27819;DHT22;15192;44.854;10.046;2023-08-21T09:59:03;32.60;99.90
27819;DHT22;15192;44.854;10.046;2023-08-21T10:01:31;32.60;99.90
27819;DHT22;15192;44.854;10.046;2023-08-21T10:04:01;32.60;99.90
27819;DHT22;15192;44.854;10.046;2023-08-21T10:06:29;32.50;99.90
27819;DHT22;15192;44.854;10.046;2023-08-21T10:08:58;32.50;99.90
27819;DHT22;15192;44.854;10.046;2023-08-21T10:11:26;32.50;99.90
27819;DHT22;15192;44.854;10.046;2023-08-21T10:13:55;32.60;99.90
27819;DHT22;15192;44.854;10.046;2023-08-21T10:16:23;32.70;99.90
27819;DHT22;15192;44.854;10.046;2023-08-21T10:18:51;32.80;99.90
27819;DHT22;15192;44.854;10.046;2023-08-21T10:21:20;32.90;99.90
27819;DHT22;15192;44.854;10.046;2023-08-21T10:23:49;32.80;99.90
27819;DHT22;15192;44.854;10.046;2023-08-21T10:26:20;32.80;99.90
27819;DHT22;15192;44.854;10.046;2023-08-21T10:28:56;32.70;99.90
27819;DHT22;15192;44.854;10.046;2023-08-21T10:31:26;32.70;99.90
27819;DHT22;15192;44.854;10.046;2023-08-21T10:33:55;32.70;99.90
27819;DHT22;15192;44.854;10.046;2023-08-21T10:39:00;32.70;99.90
27819;DHT22;15192;44.854;10.046;2023-08-21T10:41:28;32.70;99.90
27819;DHT22;15192;44.854;10.046;2023-08-21T10:43:56;32.80;99.90
27819;DHT22;15192;44.854;10.046;2023-08-21T10:46:24;32.70;99.90
27819;DHT22;15192;44.854;10.046;2023-08-21T10:48:52;32.70;99.90
27819;DHT22;15192;44.854;10.046;2023-08-21T10:51:20;32.80;99.90
27819;DHT22;15192;44.854;10.046;2023-08-21T10:53:48;33.00;99.90
27819;DHT22;15192;44.854;10.046;2023-08-21T10:56:16;33.00;99.90
27819;DHT22;15192;44.854;10.046;2023-08-21T10:58:44;33.00;99.90
27819;DHT22;15192;44.854;10.046;2023-08-21T11:01:16;32.90;99.90
27819;DHT22;15192;44.854;10.046;2023-08-21T11:03:49;32.90;99.90
27819;DHT22;15192;44.854;10.046;2023-08-21T11:06:18;33.10;99.90
27819;DHT22;15192;44.854;10.046;2023-08-21T11:08:46;33.10;99.90
27819;DHT22;15192;44.854;10.046;2023-08-21T11:11:14;33.20;99.90
27819;DHT22;15192;44.854;10.046;2023-08-21T11:13:51;33.20;99.90
27819;DHT22;15192;44.854;10.046;2023-08-21T11:16:13;33.20;99.90
27819;DHT22;15192;44.854;10.046;2023-08-21T11:18:41;33.10;99.90
27819;DHT22;15192;44.854;10.046;2023-08-21T11:21:10;33.10;99.90
27819;DHT22;15192;44.854;10.046;2023-08-21T11:23:39;33.10;99.90
27819;DHT22;15192;44.854;10.046;2023-08-21T11:26:11;33.10;99.90
27819;DHT22;15192;44.854;10.046;2023-08-21T11:28:39;33.20;99.90
27819;DHT22;15192;44.854;10.046;2023-08-21T11:31:07;33.30;99.90
27819;DHT22;15192;44.854;10.046;2023-08-21T11:33:36;33.30;99.90
27819;DHT22;15192;44.854;10.046;2023-08-21T11:36:06;33.30;99.90
27819;DHT22;15192;44.854;10.046;2023-08-21T11:38:34;33.30;99.90
27819;DHT22;15192;44.854;10.046;2023-08-21T11:41:02;33.30;99.90
27819;DHT22;15192;44.854;10.046;2023-08-21T11:43:45;33.20;99.90
27819;DHT22;15192;44.854;10.046;2023-08-21T11:46:09;33.30;99.90
27819;DHT22;15192;44.854;10.046;2023-08-21T11:48:38;33.30;99.90
27819;DHT22;15192;44.854;10.046;2023-08-21T11:51:07;33.40;99.90
27819;DHT22;15192;44.854;10.046;2023-08-21T11:53:36;33.50;99.90
27819;DHT22;15192;44.854;10.046;2023-08-21T11:56:13;33.50;99.90
27819;DHT22;15192;44.854;10.046;2023-08-21T11:58:40;33.50;99.90
27819;DHT22;15192;44.854;10.046;2023-08-21T12:01:08;33.40;99.90
27819;DHT22;15192;44.854;10.046;2023-08-21T12:03:37;33.50;99.90
27819;DHT22;15192;44.854;10.046;2023-08-21T12:06:06;33.50;99.90
27819;DHT22;15192;44.854;10.046;2023-08-21T12:08:34;33.60;99.90
27819;DHT22;15192;44.854;10.046;2023-08-21T12:11:02;33.60;99.90
27819;DHT22;15192;44.854;10.046;2023-08-21T12:13:30;33.60;99.90
27819;DHT22;15192;44.854;10.046;2023-08-21T12:15:58;33.60;99.90
27819;DHT22;15192;44.854;10.046;2023-08-21T12:18:26;33.60;99.90
27819;DHT22;15192;44.854;10.046;2023-08-21T12:20:54;33.70;99.90
27819;DHT22;15192;44.854;10.046;2023-08-21T12:23:22;33.90;99.90
27819;DHT22;15192;44.854;10.046;2023-08-21T12:25:51;33.90;99.90
27819;DHT22;15192;44.854;10.046;2023-08-21T12:28:19;34.00;99.90
27819;DHT22;15192;44.854;10.046;2023-08-21T12:30:47;33.90;99.90
27819;DHT22;15192;44.854;10.046;2023-08-21T12:33:15;33.90;99.90
27819;DHT22;15192;44.854;10.046;2023-08-21T12:35:43;33.90;99.90
27819;DHT22;15192;44.854;10.046;2023-08-21T12:38:11;33.90;99.90
27819;DHT22;15192;44.854;10.046;2023-08-21T12:40:39;33.80;99.90
27819;DHT22;15192;44.854;10.046;2023-08-21T12:43:07;33.90;99.90
27819;DHT22;15192;44.854;10.046;2023-08-21T12:45:35;33.90;99.90
27819;DHT22;15192;44.854;10.046;2023-08-21T12:48:04;33.90;99.90
27819;DHT22;15192;44.854;10.046;2023-08-21T12:50:32;33.90;99.90
27819;DHT22;15192;44.854;10.046;2023-08-21T12:53:00;34.00;99.90
27819;DHT22;15192;44.854;10.046;2023-08-21T12:55:28;33.90;99.90
27819;DHT22;15192;44.854;10.046;2023-08-21T12:57:57;33.90;99.90
27819;DHT22;15192;44.854;10.046;2023-08-21T13:00:25;33.80;99.90
27819;DHT22;15192;44.854;10.046;2023-08-21T13:02:53;33.90;99.90
27819;DHT22;15192;44.854;10.046;2023-08-21T13:05:21;33.90;99.90
27819;DHT22;15192;44.854;10.046;2023-08-21T13:07:49;34.00;99.90
27819;DHT22;15192;44.854;10.046;2023-08-21T13:10:17;34.10;99.90
27819;DHT22;15192;44.854;10.046;2023-08-21T13:12:45;34.10;99.90
27819;DHT22;15192;44.854;10.046;2023-08-21T13:15:13;34.10;99.90
27819;DHT22;15192;44.854;10.046;2023-08-21T13:17:41;34.10;99.90
27819;DHT22;15192;44.854;10.046;2023-08-21T13:20:10;34.20;99.90
27819;DHT22;15192;44.854;10.046;2023-08-21T13:22:50;34.20;99.90
27819;DHT22;15192;44.854;10.046;2023-08-21T13:25:15;34.20;99.90
27819;DHT22;15192;44.854;10.046;2023-08-21T13:27:44;34.30;99.90
27819;DHT22;15192;44.854;10.046;2023-08-21T13:30:12;34.30;99.90
27819;DHT22;15192;44.854;10.046;2023-08-21T13:32:40;34.30;99.90
27819;DHT22;15192;44.854;10.046;2023-08-21T13:35:08;34.30;99.90
27819;DHT22;15192;44.854;10.046;2023-08-21T13:37:36;34.20;99.90
27819;DHT22;15192;44.854;10.046;2023-08-21T13:40:04;34.20;99.90
27819;DHT22;15192;44.854;10.046;2023-08-21T13:42:38;34.10;99.90
27819;DHT22;15192;44.854;10.046;2023-08-21T13:45:08;34.20;99.90
27819;DHT22;15192;44.854;10.046;2023-08-21T13:47:40;34.20;99.90
27819;DHT22;15192;44.854;10.046;2023-08-21T13:50:09;34.20;99.90
27819;DHT22;15192;44.854;10.046;2023-08-21T13:52:37;34.20;99.90
27819;DHT22;15192;44.854;10.046;2023-08-21T13:55:08;34.30;99.90
27819;DHT22;15192;44.854;10.046;2023-08-21T13:57:37;34.40;99.90
27819;DHT22;15192;44.854;10.046;2023-08-21T14:00:05;34.40;99.90
27819;DHT22;15192;44.854;10.046;2023-08-21T14:02:38;34.40;99.90
27819;DHT22;15192;44.854;10.046;2023-08-21T14:05:07;34.50;99.90
27819;DHT22;15192;44.854;10.046;2023-08-21T14:07:37;34.50;99.90
27819;DHT22;15192;44.854;10.046;2023-08-21T14:10:06;34.60;99.90
27819;DHT22;15192;44.854;10.046;2023-08-21T14:12:38;34.50;99.90
27819;DHT22;15192;44.854;10.046;2023-08-21T14:15:06;34.40;99.90
27819;DHT22;15192;44.854;10.046;2023-08-21T14:17:35;34.30;99.90
27819;DHT22;15192;44.854;10.046;2023-08-21T14:20:03;34.30;99.90
27819;DHT22;15192;44.854;10.046;2023-08-21T14:22:31;34.30;99.90
27819;DHT22;15192;44.854;10.046;2023-08-21T14:24:59;34.30;99.90
27819;DHT22;15192;44.854;10.046;2023-08-21T14:27:27;34.30;99.90
27819;DHT22;15192;44.854;10.046;2023-08-21T14:29:55;34.30;99.90
27819;DHT22;15192;44.854;10.046;2023-08-21T14:32:24;34.40;99.90
27819;DHT22;15192;44.854;10.046;2023-08-21T14:34:52;34.50;99.90
27819;DHT22;15192;44.854;10.046;2023-08-21T14:37:20;34.60;99.90
27819;DHT22;15192;44.854;10.046;2023-08-21T14:39:50;34.60;99.90
27819;DHT22;15192;44.854;10.046;2023-08-21T14:42:18;34.60;99.90
27819;DHT22;15192;44.854;10.046;2023-08-21T14:44:46;34.60;99.90
27819;DHT22;15192;44.854;10.046;2023-08-21T14:47:14;34.40;99.90
27819;DHT22;15192;44.854;10.046;2023-08-21T14:49:42;34.30;99.90
27819;DHT22;15192;44.854;10.046;2023-08-21T14:52:10;34.20;99.90
27819;DHT22;15192;44.854;10.046;2023-08-21T14:54:38;34.30;99.90
27819;DHT22;15192;44.854;10.046;2023-08-21T14:57:06;34.40;99.90
27819;DHT22;15192;44.854;10.046;2023-08-21T14:59:34;34.40;99.90
27819;DHT22;15192;44.854;10.046;2023-08-21T15:02:02;34.40;99.90
27819;DHT22;15192;44.854;10.046;2023-08-21T15:04:30;34.40;99.90
27819;DHT22;15192;44.854;10.046;2023-08-21T15:06:58;34.50;99.90
27819;DHT22;15192;44.854;10.046;2023-08-21T15:09:26;34.50;99.90
27819;DHT22;15192;44.854;10.046;2023-08-21T15:11:54;34.40;99.90
27819;DHT22;15192;44.854;10.046;2023-08-21T15:14:22;34.30;99.90
27819;DHT22;15192;44.854;10.046;2023-08-21T15:16:50;34.30;99.90
27819;DHT22;15192;44.854;10.046;2023-08-21T15:19:18;34.30;99.90
27819;DHT22;15192;44.854;10.046;2023-08-21T15:21:46;34.30;99.90
27819;DHT22;15192;44.854;10.046;2023-08-21T15:24:14;34.50;99.90
27819;DHT22;15192;44.854;10.046;2023-08-21T15:26:42;34.40;99.90
27819;DHT22;15192;44.854;10.046;2023-08-21T15:29:10;34.50;99.90